Time;durP1;ratioP1;P1;durP2;ratioP2;P2;SDS_P1;SDS_P2;PMS_P1;PMS_P2;Temp;Humidity;BMP_temperature;BMP_pressure;BME280_temperature;BME280_humidity;BME280_pressure;Samples;Min_cycle;Max_cycle;Signal;HPM_P1;HPM_P2
2023/08/12 00:01:48;;;;;;;16.20;14.70;;;21.00;1.00;;;;;;6307106;22;20148;-41
2023/08/12 00:04:14;;;;;;;15.37;13.77;;;21.00;1.00;;;;;;6307205;22;20444;-41
2023/08/12 00:06:41;;;;;;;14.17;11.87;;;21.00;1.00;;;;;;6307078;22;20142;-42
2023/08/12 00:09:07;;;;;;;15.60;14.20;;;21.00;1.00;;;;;;6307527;22;20371;-40
2023/08/12 00:11:34;;;;;;;13.80;12.60;;;21.00;1.00;;;;;;6278642;22;20378;-39
2023/08/12 00:14:00;;;;;;;15.40;13.90;;;21.00;4.50;;;;;;6320952;22;20441;-42
2023/08/12 00:16:25;;;;;;;13.90;12.60;;;21.00;20.10;;;;;;6338772;22;20475;-40
2023/08/12 00:18:51;;;;;;;12.97;11.77;;;21.00;4.90;;;;;;6337802;22;20142;-40
2023/08/12 00:21:17;;;;;;;11.67;10.57;;;20.90;4.80;;;;;;6337970;22;20128;-39
2023/08/12 00:23:44;;;;;;;10.70;9.70;;;20.90;12.10;;;;;;6338127;22;20179;-39
2023/08/12 00:26:10;;;;;;;10.87;9.90;;;20.90;53.80;;;;;;6338147;22;20517;-42
2023/08/12 00:28:36;;;;;;;10.50;9.47;;;20.90;99.90;;;;;;6338132;22;20389;-41
2023/08/12 00:31:02;;;;;;;9.93;9.03;;;20.90;99.90;;;;;;6339087;22;20400;-43
2023/08/12 00:33:28;;;;;;;9.50;8.60;;;20.90;99.90;;;;;;6339228;22;20733;-41
2023/08/12 00:35:54;;;;;;;10.40;9.50;;;20.80;99.90;;;;;;6341204;22;20313;-40
2023/08/12 00:38:19;;;;;;;11.03;9.83;;;20.80;99.90;;;;;;6341586;22;20392;-40
2023/08/12 00:40:45;;;;;;;12.73;9.87;;;20.90;99.90;;;;;;6339092;22;20155;-44
2023/08/12 00:43:11;;;;;;;10.27;8.70;;;20.90;99.90;;;;;;6340269;22;20178;-42
2023/08/12 00:45:37;;;;;;;9.70;8.90;;;20.90;99.90;;;;;;6340992;22;20170;-41
2023/08/12 00:48:04;;;;;;;9.40;8.50;;;20.90;99.90;;;;;;6312652;22;20306;-44
2023/08/12 00:50:29;;;;;;;10.40;9.30;;;20.90;99.90;;;;;;6313626;22;20382;-40
2023/08/12 00:52:55;;;;;;;10.30;9.30;;;20.80;99.90;;;;;;6340658;22;20489;-41
2023/08/12 00:55:21;;;;;;;9.60;8.80;;;20.80;99.90;;;;;;6339237;22;20178;-40
2023/08/12 00:57:47;;;;;;;9.93;9.03;;;20.70;99.90;;;;;;6339937;22;20137;-42
2023/08/12 01:00:13;;;;;;;9.63;8.73;;;20.70;99.90;;;;;;6339724;22;20684;-41
2023/08/12 01:02:39;;;;;;;10.43;9.30;;;20.70;99.90;;;;;;6311047;22;20155;-42
2023/08/12 01:05:05;;;;;;;9.27;8.37;;;20.70;99.90;;;;;;6310442;22;20436;-39
2023/08/12 01:07:31;;;;;;;9.83;8.93;;;20.70;99.90;;;;;;6337572;22;20447;-40
2023/08/12 01:09:56;;;;;;;9.57;8.77;;;20.70;99.90;;;;;;6338854;22;20386;-42
2023/08/12 01:12:56;;;;;;;9.70;8.77;;;20.80;99.90;;;;;;6338484;22;20384;-40
2023/08/12 01:15:24;;;;;;;9.80;9.00;;;20.80;99.90;;;;;;6261237;22;20511;-44
2023/08/12 01:17:53;;;;;;;9.00;8.30;;;20.80;99.90;;;;;;6336285;22;20377;-43
2023/08/12 01:20:26;;;;;;;10.00;9.10;;;20.80;99.90;;;;;;6310840;22;20385;-44
2023/08/12 01:23:19;;;;;;;9.97;8.83;;;20.80;99.90;;;;;;6337558;22;20450;-40
2023/08/12 01:25:45;;;;;;;10.03;9.23;;;20.70;99.90;;;;;;6333056;22;20393;-41
2023/08/12 01:28:11;;;;;;;9.97;9.17;;;20.70;99.90;;;;;;6338757;22;20417;-42
2023/08/12 01:30:51;;;;;;;10.10;8.73;;;20.70;99.90;;;;;;6338119;22;20136;-40
2023/08/12 01:33:28;;;;;;;10.70;9.70;;;20.70;99.90;;;;;;6311718;22;20214;-42
2023/08/12 01:35:56;;;;;;;9.60;8.60;;;20.70;99.90;;;;;;6309762;22;20581;-41
2023/08/12 01:38:24;;;;;;;10.00;9.20;;;20.60;1.00;;;;;;6336281;22;20423;-42
2023/08/12 01:40:50;;;;;;;9.80;9.00;;;20.60;1.00;;;;;;6337549;22;20377;-42
2023/08/12 01:43:16;;;;;;;9.97;9.17;;;20.60;1.00;;;;;;6337714;22;20427;-43
2023/08/12 01:45:43;;;;;;;10.70;9.80;;;20.70;1.00;;;;;;6338779;22;20386;-41
2023/08/12 01:48:09;;;;;;;10.70;9.80;;;20.70;1.00;;;;;;6338267;22;20306;-42
2023/08/12 01:50:35;;;;;;;9.37;8.67;;;20.70;1.00;;;;;;6339768;22;20373;-42
2023/08/12 01:53:00;;;;;;;9.80;9.00;;;20.70;1.00;;;;;;6339348;22;20147;-46
2023/08/12 01:55:26;;;;;;;9.30;8.50;;;20.70;1.00;;;;;;6313219;22;20146;-43
2023/08/12 01:57:52;;;;;;;10.60;9.50;;;20.70;1.00;;;;;;6287300;22;20155;-40
2023/08/12 02:00:17;;;;;;;10.10;9.20;;;20.70;99.90;;;;;;6314311;22;20646;-39
2023/08/12 02:02:46;;;;;;;9.37;8.60;;;20.70;99.90;;;;;;6341055;22;20150;-42
2023/08/12 02:05:13;;;;;;;10.90;9.80;;;20.70;99.90;;;;;;6339742;22;20234;-42
2023/08/12 02:07:38;;;;;;;10.00;9.10;;;20.70;99.90;;;;;;6339601;22;20654;-39
2023/08/12 02:10:04;;;;;;;10.73;9.80;;;20.70;1.00;;;;;;6339349;22;20488;-39
2023/08/12 02:12:30;;;;;;;10.47;9.57;;;20.70;1.00;;;;;;6337955;22;20158;-40
2023/08/12 02:14:55;;;;;;;9.93;9.03;;;20.70;1.00;;;;;;6337165;22;20493;-42
2023/08/12 02:17:21;;;;;;;10.50;9.60;;;20.70;1.00;;;;;;6340062;22;20240;-44
2023/08/12 02:19:47;;;;;;;9.27;8.47;;;20.70;1.00;;;;;;6340430;22;20230;-42
2023/08/12 02:22:12;;;;;;;9.27;8.47;;;20.70;1.00;;;;;;6339353;22;20512;-40
2023/08/12 02:24:38;;;;;;;10.70;9.80;;;20.70;1.00;;;;;;6337325;22;20234;-42
2023/08/12 02:27:04;;;;;;;8.90;8.10;;;20.70;1.00;;;;;;6338155;22;20128;-44
2023/08/12 02:29:29;;;;;;;9.37;8.57;;;20.70;1.00;;;;;;6338496;22;20147;-42
2023/08/12 02:31:55;;;;;;;9.53;8.63;;;20.60;1.00;;;;;;6338506;22;20161;-41
2023/08/12 02:34:21;;;;;;;8.30;7.53;;;20.60;1.00;;;;;;6338071;22;20175;-40
2023/08/12 02:36:46;;;;;;;8.50;7.80;;;20.60;1.00;;;;;;6336588;22;20507;-39
2023/08/12 02:39:12;;;;;;;10.90;9.10;;;20.60;1.00;;;;;;6339451;22;20491;-42
2023/08/12 02:41:37;;;;;;;9.00;8.20;;;20.60;1.00;;;;;;6339162;22;20611;-41
2023/08/12 02:44:03;;;;;;;9.47;8.70;;;20.60;1.00;;;;;;6339856;22;20349;-41
2023/08/12 02:46:29;;;;;;;10.10;9.20;;;20.70;1.00;;;;;;6339548;22;20154;-42
2023/08/12 02:48:54;;;;;;;8.70;7.93;;;20.70;1.00;;;;;;6339705;22;20223;-41
2023/08/12 02:51:20;;;;;;;7.97;7.30;;;20.70;1.00;;;;;;6339096;22;20423;-41
2023/08/12 02:53:46;;;;;;;9.17;8.30;;;20.70;1.00;;;;;;6337904;22;20158;-42
2023/08/12 02:56:11;;;;;;;9.03;8.23;;;20.70;1.00;;;;;;6339400;22;20155;-41
2023/08/12 02:58:37;;;;;;;9.20;8.37;;;20.70;1.00;;;;;;6340350;22;20411;-40
2023/08/12 03:01:04;;;;;;;8.43;7.73;;;20.70;1.00;;;;;;6338868;22;20151;-41
2023/08/12 03:03:29;;;;;;;9.33;8.57;;;20.70;1.00;;;;;;6338719;22;20416;-40
2023/08/12 03:05:55;;;;;;;10.13;9.27;;;20.70;1.00;;;;;;6337655;22;20385;-41
2023/08/12 03:08:20;;;;;;;9.40;8.63;;;20.70;1.00;;;;;;6338659;22;20174;-41
2023/08/12 03:10:46;;;;;;;9.80;9.00;;;20.70;1.00;;;;;;6311831;22;20400;-41
2023/08/12 03:13:12;;;;;;;8.80;8.00;;;20.70;1.00;;;;;;6339670;22;20207;-42
2023/08/12 03:15:41;;;;;;;8.50;7.73;;;20.70;1.00;;;;;;6339183;22;20128;-45
2023/08/12 03:18:07;;;;;;;9.13;8.43;;;20.70;1.00;;;;;;6338634;22;20128;-39
2023/08/12 03:20:33;;;;;;;9.50;8.50;;;20.70;1.00;;;;;;6338164;22;20472;-42
2023/08/12 03:23:00;;;;;;;9.67;8.87;;;20.70;1.00;;;;;;6337037;22;20155;-40
2023/08/12 03:25:25;;;;;;;8.53;7.83;;;20.70;1.00;;;;;;6336965;22;20258;-40
2023/08/12 03:27:51;;;;;;;9.33;8.33;;;20.70;1.00;;;;;;6309727;22;20349;-42
2023/08/12 03:30:17;;;;;;;9.03;8.23;;;20.70;1.00;;;;;;6337233;22;20214;-42
2023/08/12 03:32:42;;;;;;;8.10;7.50;;;20.70;1.00;;;;;;6336900;22;20155;-41
2023/08/12 03:35:08;;;;;;;7.93;7.23;;;20.70;1.00;;;;;;6337190;22;20154;-41
2023/08/12 03:37:34;;;;;;;8.57;7.83;;;20.70;1.00;;;;;;6335862;22;20520;-45
2023/08/12 03:40:00;;;;;;;8.87;8.17;;;20.70;1.00;;;;;;6338243;22;20381;-44
2023/08/12 03:42:25;;;;;;;8.27;7.57;;;20.70;1.00;;;;;;6339037;22;20198;-41
2023/08/12 03:44:51;;;;;;;8.70;7.80;;;20.70;1.00;;;;;;6339402;22;20313;-40
2023/08/12 03:47:21;;;;;;;8.27;7.47;;;20.80;1.00;;;;;;6339938;22;20149;-42
2023/08/12 03:49:47;;;;;;;8.17;7.37;;;20.80;1.00;;;;;;6338138;22;20170;-39
2023/08/12 03:52:13;;;;;;;7.77;7.17;;;20.80;1.00;;;;;;6338776;22;20388;-42
2023/08/12 03:54:38;;;;;;;7.93;7.23;;;20.80;1.00;;;;;;6310653;22;20189;-43
2023/08/12 03:57:04;;;;;;;7.70;7.13;;;20.80;1.00;;;;;;6337182;22;20167;-43
2023/08/12 03:59:30;;;;;;;8.57;7.33;;;20.80;1.00;;;;;;6337281;22;20222;-45
2023/08/12 04:01:55;;;;;;;8.00;7.30;;;20.80;1.00;;;;;;6336200;22;20420;-40
2023/08/12 04:04:21;;;;;;;7.90;7.20;;;20.80;1.00;;;;;;6338470;22;20190;-40
2023/08/12 04:06:51;;;;;;;8.03;7.30;;;20.90;1.00;;;;;;6338050;22;20132;-42
2023/08/12 04:09:19;;;;;;;7.23;6.73;;;20.90;1.00;;;;;;6338683;22;20123;-42
2023/08/12 04:11:45;;;;;;;6.53;6.03;;;20.90;1.00;;;;;;6337990;22;20377;-43
2023/08/12 04:14:12;;;;;;;7.27;6.67;;;20.90;1.00;;;;;;6337178;22;20460;-42
2023/08/12 04:16:38;;;;;;;7.30;6.70;;;20.90;1.00;;;;;;6335844;22;20825;-41
2023/08/12 04:19:04;;;;;;;7.90;7.10;;;20.90;99.90;;;;;;6336472;22;20416;-44
2023/08/12 04:21:29;;;;;;;8.00;7.20;;;20.90;99.90;;;;;;6338078;22;20652;-42
2023/08/12 04:23:55;;;;;;;8.20;7.50;;;20.90;99.90;;;;;;6338848;22;20175;-42
2023/08/12 04:26:21;;;;;;;7.43;6.83;;;20.90;99.90;;;;;;6337390;22;20210;-40
2023/08/12 04:28:46;;;;;;;7.20;6.70;;;20.90;99.90;;;;;;6339854;22;20147;-43
2023/08/12 04:31:12;;;;;;;7.93;7.23;;;20.90;99.90;;;;;;6340143;22;20147;-44
2023/08/12 04:33:38;;;;;;;8.77;7.97;;;21.00;99.90;;;;;;6339981;22;20214;-40
2023/08/12 04:36:04;;;;;;;8.70;7.93;;;21.00;99.90;;;;;;6340466;22;20138;-41
2023/08/12 04:38:31;;;;;;;8.00;7.30;;;21.00;99.90;;;;;;6313543;22;20187;-41
2023/08/12 04:40:57;;;;;;;7.83;7.03;;;21.00;99.90;;;;;;6341329;22;20381;-40
2023/08/12 04:43:22;;;;;;;7.07;6.57;;;21.00;99.90;;;;;;6341014;22;20594;-42
2023/08/12 04:45:48;;;;;;;9.50;7.17;;;21.00;99.90;;;;;;6338979;22;20358;-40
2023/08/12 04:48:14;;;;;;;10.93;8.23;;;21.00;99.90;;;;;;6337811;22;20197;-40
2023/08/12 04:50:41;;;;;;;8.43;7.73;;;21.00;99.90;;;;;;6338973;22;20389;-39
2023/08/12 04:53:06;;;;;;;7.60;6.87;;;21.00;99.90;;;;;;6339022;22;20385;-40
2023/08/12 04:55:33;;;;;;;8.50;7.63;;;21.10;1.00;;;;;;6338960;22;20403;-39
2023/08/12 04:57:58;;;;;;;8.03;7.33;;;21.10;1.00;;;;;;6338714;22;20487;-41
2023/08/12 05:00:24;;;;;;;8.23;7.63;;;21.10;1.00;;;;;;6338600;22;20364;-40
2023/08/12 05:02:49;;;;;;;8.57;7.67;;;21.10;1.00;;;;;;6338721;22;20492;-41
2023/08/12 05:05:15;;;;;;;8.27;7.50;;;21.10;1.00;;;;;;6340057;22;20396;-42
2023/08/12 05:07:41;;;;;;;8.00;7.37;;;21.10;1.00;;;;;;6337183;22;20219;-41
2023/08/12 05:10:07;;;;;;;8.33;7.63;;;21.10;1.00;;;;;;6338056;22;20175;-41
2023/08/12 05:12:32;;;;;;;9.17;8.37;;;21.10;1.00;;;;;;6337825;22;20485;-43
2023/08/12 05:14:58;;;;;;;9.37;8.07;;;21.10;1.00;;;;;;6336439;22;20472;-40
2023/08/12 05:17:24;;;;;;;8.47;7.77;;;21.20;1.00;;;;;;6336535;22;20174;-40
2023/08/12 05:19:49;;;;;;;9.80;8.90;;;21.20;1.00;;;;;;6311537;22;20205;-42
2023/08/12 05:22:16;;;;;;;11.03;9.67;;;21.20;99.90;;;;;;6339528;22;20155;-40
2023/08/12 05:24:41;;;;;;;9.90;9.00;;;21.10;99.90;;;;;;6338547;22;20174;-41
2023/08/12 05:27:07;;;;;;;10.10;9.10;;;21.00;99.90;;;;;;6337170;22;20756;-39
2023/08/12 05:29:33;;;;;;;9.77;8.83;;;21.00;1.00;;;;;;6337941;22;20209;-42
2023/08/12 05:31:58;;;;;;;8.70;8.00;;;20.80;1.00;;;;;;6339334;22;20381;-43
2023/08/12 05:34:24;;;;;;;8.20;7.60;;;20.90;1.00;;;;;;6338875;22;20173;-43
2023/08/12 05:36:50;;;;;;;8.80;8.00;;;20.90;1.00;;;;;;6336926;22;20135;-42
2023/08/12 05:39:15;;;;;;;9.17;8.37;;;21.00;99.90;;;;;;6337382;22;20182;-40
2023/08/12 05:41:41;;;;;;;9.53;8.53;;;21.10;99.90;;;;;;6337823;22;20159;-42
2023/08/12 05:44:07;;;;;;;9.50;8.60;;;21.10;1.00;;;;;;6309783;22;20181;-41
2023/08/12 05:46:33;;;;;;;9.50;8.80;;;21.20;1.00;;;;;;6334466;22;20504;-41
2023/08/12 05:48:58;;;;;;;8.87;7.97;;;21.20;1.00;;;;;;6335085;22;20265;-44
2023/08/12 05:51:24;;;;;;;8.27;7.57;;;21.30;1.00;;;;;;6334318;22;20132;-41
2023/08/12 05:53:50;;;;;;;8.90;8.20;;;21.30;1.00;;;;;;6306814;22;20148;-44
2023/08/12 05:56:15;;;;;;;10.50;8.77;;;21.30;99.90;;;;;;6333772;22;20427;-42
2023/08/12 05:58:41;;;;;;;8.73;8.00;;;21.40;99.90;;;;;;6336997;22;20530;-45
2023/08/12 06:01:06;;;;;;;8.60;7.80;;;21.50;99.90;;;;;;6339522;22;20229;-43
2023/08/12 06:03:32;;;;;;;8.27;7.57;;;21.50;99.90;;;;;;6338159;22;20217;-41
2023/08/12 06:05:58;;;;;;;9.47;8.67;;;21.60;99.90;;;;;;6340652;22;20499;-40
2023/08/12 06:08:24;;;;;;;8.73;8.00;;;21.70;99.90;;;;;;6340570;22;20242;-46
2023/08/12 06:10:51;;;;;;;8.93;8.13;;;21.70;99.90;;;;;;6313422;22;20159;-41
2023/08/12 06:13:17;;;;;;;8.10;7.50;;;21.70;99.90;;;;;;6339976;22;20512;-41
2023/08/12 06:15:44;;;;;;;8.90;8.10;;;21.80;99.90;;;;;;6336707;22;20644;-41
2023/08/12 06:18:09;;;;;;;8.80;8.03;;;21.90;99.90;;;;;;6334316;22;20478;-39
2023/08/12 06:20:35;;;;;;;9.00;8.10;;;22.10;25.90;;;;;;6336712;22;20399;-41
2023/08/12 06:23:01;;;;;;;7.57;6.87;;;22.10;1.00;;;;;;6338279;22;20385;-44
2023/08/12 06:25:26;;;;;;;7.80;7.10;;;22.30;1.00;;;;;;6338367;22;20147;-40
2023/08/12 06:27:52;;;;;;;7.30;6.70;;;22.40;1.00;;;;;;6337216;22;20212;-42
2023/08/12 06:30:18;;;;;;;8.57;7.77;;;22.50;1.00;;;;;;6338064;22;20507;-40
2023/08/12 06:32:43;;;;;;;7.20;6.70;;;22.60;99.90;;;;;;6338071;22;20151;-42
2023/08/12 06:35:09;;;;;;;7.83;7.17;;;22.60;99.90;;;;;;6338765;22;20151;-40
2023/08/12 06:37:35;;;;;;;8.53;7.63;;;22.80;41.40;;;;;;6340616;22;20151;-44
2023/08/12 06:40:01;;;;;;;8.40;7.70;;;23.00;1.00;;;;;;6340036;22;20606;-39
2023/08/12 06:42:26;;;;;;;8.10;7.50;;;23.20;99.90;;;;;;6340079;22;20163;-43
2023/08/12 06:44:56;;;;;;;7.60;6.90;;;23.50;1.00;;;;;;6336733;22;20277;-40
2023/08/12 06:47:22;;;;;;;8.43;7.70;;;23.80;1.00;;;;;;6336608;22;20219;-40
2023/08/12 06:49:48;;;;;;;8.57;7.87;;;24.10;99.90;;;;;;6337733;22;20451;-42
2023/08/12 06:52:14;;;;;;;8.27;7.63;;;24.30;99.90;;;;;;6336268;22;20397;-41
2023/08/12 06:54:39;;;;;;;7.40;6.70;;;24.50;28.90;;;;;;6307816;22;20211;-40
2023/08/12 06:57:05;;;;;;;8.10;7.40;;;24.70;1.00;;;;;;6333169;22;20175;-40
2023/08/12 06:59:30;;;;;;;7.50;6.80;;;24.90;99.90;;;;;;6333050;22;20151;-40
2023/08/12 07:01:56;;;;;;;6.93;6.40;;;25.10;99.90;;;;;;6332566;22;20151;-40
2023/08/12 07:04:22;;;;;;;8.10;7.40;;;25.10;99.90;;;;;;6332399;22;20239;-40
2023/08/12 07:06:48;;;;;;;7.30;6.70;;;25.30;99.90;;;;;;6333744;22;20127;-44
2023/08/12 07:09:14;;;;;;;7.57;6.90;;;25.30;10.70;;;;;;6335411;22;20131;-43
2023/08/12 07:11:40;;;;;;;7.10;6.50;;;25.30;2.70;;;;;;6334803;22;20427;-41
2023/08/12 07:14:05;;;;;;;6.90;6.30;;;25.30;1.00;;;;;;6335099;22;20195;-42
2023/08/12 07:16:31;;;;;;;7.43;6.77;;;25.30;1.00;;;;;;6336361;22;20385;-41
2023/08/12 07:18:57;;;;;;;7.20;6.50;;;25.40;1.00;;;;;;6338703;22;20166;-41
2023/08/12 07:21:22;;;;;;;7.60;6.90;;;25.40;1.00;;;;;;6310445;22;20146;-41
2023/08/12 07:23:48;;;;;;;7.47;6.83;;;25.40;1.00;;;;;;6338244;22;20175;-42
2023/08/12 07:26:14;;;;;;;7.83;7.13;;;25.30;1.00;;;;;;6312212;22;20159;-41
2023/08/12 07:28:41;;;;;;;7.13;6.50;;;25.40;1.00;;;;;;6286680;22;20776;-40
2023/08/12 07:31:08;;;;;;;7.97;7.30;;;25.50;1.00;;;;;;6310546;22;20391;-42
2023/08/12 07:33:34;;;;;;;8.33;6.90;;;25.60;99.90;;;;;;6311053;22;20762;-41
2023/08/12 07:36:00;;;;;;;6.70;6.20;;;25.70;99.90;;;;;;6288010;22;20555;-41
2023/08/12 07:38:25;;;;;;;6.10;5.60;;;25.80;99.90;;;;;;6288444;22;20404;-42
2023/08/12 07:40:51;;;;;;;6.47;5.97;;;25.90;99.90;;;;;;6342842;22;20385;-43
2023/08/12 07:43:21;;;;;;;6.87;6.20;;;26.00;99.90;;;;;;6344610;22;20481;-41
2023/08/12 07:45:52;;;;;;;5.97;5.47;;;25.90;99.90;;;;;;6343364;22;20364;-41
2023/08/12 07:48:18;;;;;;;6.20;5.70;;;26.00;99.90;;;;;;6341538;22;20490;-43
2023/08/12 07:50:44;;;;;;;6.50;6.00;;;25.90;99.90;;;;;;6313039;22;20397;-42
2023/08/12 07:53:10;;;;;;;8.80;6.20;;;25.80;99.90;;;;;;6340330;22;20392;-40
2023/08/12 07:55:35;;;;;;;6.33;5.70;;;26.00;99.90;;;;;;6339494;22;20147;-40
2023/08/12 07:58:01;;;;;;;6.50;6.00;;;26.10;99.90;;;;;;6339372;22;20170;-42
2023/08/12 08:00:26;;;;;;;6.10;5.60;;;26.40;99.90;;;;;;6339461;22;20372;-42
2023/08/12 08:02:52;;;;;;;6.30;5.70;;;26.70;99.90;;;;;;6340408;22;20558;-43
2023/08/12 08:05:18;;;;;;;5.93;5.43;;;27.00;62.70;;;;;;6340201;22;20435;-39
2023/08/12 08:07:43;;;;;;;8.37;6.13;;;27.40;41.10;;;;;;6340429;22;20222;-41
2023/08/12 08:10:10;;;;;;;6.90;6.30;;;27.50;13.40;;;;;;6311515;22;20542;-41
2023/08/12 08:12:35;;;;;;;6.70;5.70;;;27.40;3.90;;;;;;6338157;22;20146;-40
2023/08/12 08:15:03;;;;;;;6.00;5.50;;;27.40;1.00;;;;;;6337720;22;20432;-39
2023/08/12 08:17:28;;;;;;;6.90;6.23;;;27.30;1.00;;;;;;6338339;22;20538;-41
2023/08/12 08:19:54;;;;;;;7.33;6.00;;;27.50;1.00;;;;;;6336772;22;20389;-39
2023/08/12 08:22:20;;;;;;;6.23;5.63;;;27.90;1.00;;;;;;6337067;22;20190;-51
2023/08/12 08:24:45;;;;;;;6.60;6.03;;;28.20;1.00;;;;;;6337260;22;20473;-39
2023/08/12 08:27:11;;;;;;;5.33;4.93;;;28.50;1.00;;;;;;6336885;22;20151;-41
2023/08/12 08:29:37;;;;;;;5.77;5.27;;;28.60;1.00;;;;;;6336758;22;20162;-42
2023/08/12 08:32:02;;;;;;;5.00;4.60;;;28.80;1.00;;;;;;6309935;22;20151;-39
2023/08/12 08:34:28;;;;;;;5.50;5.10;;;29.00;1.00;;;;;;6338287;22;20151;-40
2023/08/12 08:36:54;;;;;;;5.83;5.30;;;29.00;1.00;;;;;;6338732;22;20151;-40
2023/08/12 08:39:21;;;;;;;6.47;5.87;;;29.00;1.00;;;;;;6337855;22;20559;-39
2023/08/12 08:41:47;;;;;;;6.20;5.60;;;29.40;1.00;;;;;;6337786;22;20385;-39
2023/08/12 08:44:13;;;;;;;5.30;4.90;;;29.40;1.00;;;;;;6336771;22;20444;-41
2023/08/12 08:46:40;;;;;;;6.20;5.67;;;29.60;1.00;;;;;;6284882;22;20389;-40
2023/08/12 08:49:06;;;;;;;6.63;5.70;;;29.60;1.00;;;;;;6310627;22;20399;-39
2023/08/12 08:51:32;;;;;;;5.40;4.90;;;29.70;1.00;;;;;;6310623;22;20390;-41
2023/08/12 08:53:58;;;;;;;5.50;5.00;;;29.80;1.00;;;;;;6339347;22;20385;-47
2023/08/12 08:56:24;;;;;;;5.03;4.63;;;29.90;1.00;;;;;;6312239;22;20393;-41
2023/08/12 08:58:50;;;;;;;6.13;4.50;;;29.80;1.00;;;;;;6339296;22;20396;-41
2023/08/12 09:01:18;;;;;;;6.20;5.70;;;30.10;1.00;;;;;;6336970;22;20660;-39
2023/08/12 09:03:44;;;;;;;4.63;4.30;;;30.50;1.00;;;;;;6311055;22;20242;-40
2023/08/12 09:06:10;;;;;;;5.13;4.80;;;30.60;1.00;;;;;;6339225;22;20354;-40
2023/08/12 09:08:36;;;;;;;5.13;4.73;;;30.50;1.00;;;;;;6310479;22;20770;-43
2023/08/12 09:11:02;;;;;;;5.20;4.80;;;30.20;1.00;;;;;;6310815;22;20656;-44
2023/08/12 09:13:29;;;;;;;5.10;4.60;;;30.20;1.00;;;;;;6311925;22;20439;-39
2023/08/12 09:15:55;;;;;;;5.37;4.87;;;30.30;1.00;;;;;;6339016;22;20668;-40
2023/08/12 09:18:24;;;;;;;5.47;4.97;;;30.30;1.00;;;;;;6339878;22;20384;-43
2023/08/12 09:20:50;;;;;;;6.27;5.67;;;30.40;1.00;;;;;;6340356;22;20726;-42
2023/08/12 09:23:17;;;;;;;5.90;5.40;;;30.10;1.00;;;;;;6338513;22;20386;-40
2023/08/12 09:25:44;;;;;;;5.33;4.83;;;30.10;1.00;;;;;;6336410;22;20378;-40
2023/08/12 09:28:10;;;;;;;5.80;5.20;;;30.30;1.00;;;;;;6335566;22;20389;-40
2023/08/12 09:30:36;;;;;;;5.47;4.97;;;30.20;1.00;;;;;;6284136;22;20403;-41
2023/08/12 09:33:06;;;;;;;6.27;5.60;;;30.10;1.00;;;;;;6339752;22;20419;-41
2023/08/12 09:35:41;;;;;;;5.10;4.70;;;29.80;1.00;;;;;;6286242;22;20473;-42
2023/08/12 09:38:11;;;;;;;5.10;4.73;;;29.60;1.00;;;;;;6337693;22;20356;-40
2023/08/12 09:40:37;;;;;;;6.33;5.27;;;29.50;1.00;;;;;;6336185;22;20382;-40
2023/08/12 09:43:03;;;;;;;6.17;5.67;;;29.30;1.00;;;;;;6335854;22;20840;-40
2023/08/12 09:45:30;;;;;;;6.07;5.43;;;29.10;1.00;;;;;;6335036;22;20128;-39
2023/08/12 09:47:56;;;;;;;6.50;5.27;;;28.80;1.00;;;;;;6333322;22;20234;-41
2023/08/12 09:50:26;;;;;;;5.17;4.77;;;28.80;1.00;;;;;;6336215;22;20487;-41
2023/08/12 09:52:53;;;;;;;6.07;5.57;;;28.70;1.00;;;;;;6336540;22;20148;-40
2023/08/12 09:55:22;;;;;;;5.90;5.30;;;28.60;1.00;;;;;;6339987;22;20777;-41
2023/08/12 09:57:49;;;;;;;7.17;5.60;;;28.60;1.00;;;;;;6339955;22;20393;-39
2023/08/12 10:00:17;;;;;;;6.07;5.60;;;28.60;1.00;;;;;;6309587;22;20449;-41
2023/08/12 10:02:45;;;;;;;7.43;5.80;;;28.60;1.00;;;;;;6309606;22;20392;-39
2023/08/12 10:05:12;;;;;;;7.00;6.30;;;28.60;1.00;;;;;;6334300;22;20730;-41
2023/08/12 10:07:39;;;;;;;6.57;5.97;;;28.60;1.00;;;;;;6336936;22;20815;-41
2023/08/12 10:10:06;;;;;;;6.23;5.63;;;28.60;1.00;;;;;;6335665;22;20396;-39
2023/08/12 10:12:33;;;;;;;7.40;6.27;;;28.50;1.00;;;;;;6311834;22;20644;-41
2023/08/12 10:15:00;;;;;;;6.17;5.57;;;28.30;1.00;;;;;;6338258;22;20440;-39
2023/08/12 10:17:25;;;;;;;5.87;5.30;;;28.20;1.00;;;;;;6284174;22;20680;-43
2023/08/12 10:19:55;;;;;;;6.10;5.60;;;28.20;1.00;;;;;;6308505;22;20645;-41
2023/08/12 10:22:21;;;;;;;5.87;5.47;;;28.30;1.00;;;;;;6334435;22;20381;-39
2023/08/12 10:24:48;;;;;;;6.33;5.73;;;28.60;1.00;;;;;;6333956;22;20480;-40
2023/08/12 10:27:14;;;;;;;6.10;5.60;;;28.70;1.00;;;;;;6283900;22;20362;-40
2023/08/12 10:29:42;;;;;;;6.60;5.30;;;28.80;1.00;;;;;;6309708;22;20381;-42
2023/08/12 10:32:08;;;;;;;6.20;5.70;;;29.10;1.00;;;;;;6337406;22;20449;-39
2023/08/12 10:34:34;;;;;;;7.00;5.00;;;29.20;1.00;;;;;;6283927;22;20638;-40
2023/08/12 10:37:03;;;;;;;5.37;4.93;;;28.90;1.00;;;;;;6337014;22;20454;-40
2023/08/12 10:39:33;;;;;;;5.27;4.87;;;28.70;1.00;;;;;;6337650;22;20163;-40
2023/08/12 10:41:59;;;;;;;5.13;4.70;;;28.80;1.00;;;;;;6284006;22;20665;-40
2023/08/12 10:44:51;;;;;;;5.03;4.53;;;29.00;1.00;;;;;;6336865;22;20421;-39
2023/08/12 10:47:17;;;;;;;5.13;4.73;;;29.50;1.00;;;;;;6335812;22;20147;-39
2023/08/12 10:49:45;;;;;;;5.30;4.90;;;30.10;1.00;;;;;;6335133;22;20392;-41
2023/08/12 10:52:30;;;;;;;5.40;5.00;;;30.70;1.00;;;;;;6310042;22;20155;-42
2023/08/12 10:55:15;;;;;;;4.93;4.53;;;30.80;1.00;;;;;;6337310;22;20655;-43
2023/08/12 10:57:41;;;;;;;5.57;5.00;;;30.80;1.00;;;;;;6334415;22;20336;-42
2023/08/12 11:00:11;;;;;;;5.50;4.43;;;30.80;1.00;;;;;;6334252;22;20364;-43
2023/08/12 11:02:39;;;;;;;6.23;5.17;;;30.50;1.00;;;;;;6307683;22;20181;-42
2023/08/12 11:05:12;;;;;;;6.23;5.73;;;30.10;1.00;;;;;;6336668;22;20439;-39
2023/08/12 11:07:42;;;;;;;5.60;5.10;;;30.30;1.00;;;;;;6334615;22;20396;-42
2023/08/12 11:10:17;;;;;;;5.20;4.80;;;30.90;1.00;;;;;;6305042;22;20409;-39
2023/08/12 11:12:53;;;;;;;5.90;5.40;;;31.50;1.00;;;;;;6335222;22;20410;-40
2023/08/12 11:15:28;;;;;;;5.83;5.33;;;31.50;1.00;;;;;;6337822;22;20391;-39
2023/08/12 11:17:54;;;;;;;5.73;5.23;;;31.20;1.00;;;;;;6339677;22;20767;-41
2023/08/12 11:20:21;;;;;;;8.10;5.73;;;30.80;1.00;;;;;;6311307;22;20373;-39
2023/08/12 11:22:46;;;;;;;5.73;5.20;;;30.70;1.00;;;;;;6337475;22;20154;-39
2023/08/12 11:25:13;;;;;;;6.60;5.90;;;30.60;1.00;;;;;;6337541;22;20421;-40
2023/08/12 11:27:43;;;;;;;6.90;5.90;;;30.30;1.00;;;;;;6337385;22;20207;-43
2023/08/12 11:30:11;;;;;;;6.40;5.80;;;30.10;1.00;;;;;;6335827;22;20358;-41
2023/08/12 11:32:40;;;;;;;7.10;6.50;;;30.50;1.00;;;;;;6339700;22;20462;-40
2023/08/12 11:35:07;;;;;;;7.10;5.33;;;31.20;1.00;;;;;;6339376;22;20364;-40
2023/08/12 11:37:33;;;;;;;5.40;4.90;;;31.40;1.00;;;;;;6309319;22;20377;-40
2023/08/12 11:39:58;;;;;;;6.20;5.70;;;31.40;1.00;;;;;;6336859;22;20715;-40
2023/08/12 11:42:24;;;;;;;5.83;5.33;;;31.20;1.00;;;;;;6337934;22;20200;-40
2023/08/12 11:44:50;;;;;;;6.10;5.60;;;30.70;1.00;;;;;;6339015;22;20182;-42
2023/08/12 11:47:16;;;;;;;5.60;5.10;;;30.30;1.00;;;;;;6336446;22;20485;-41
2023/08/12 11:49:41;;;;;;;5.83;5.33;;;30.70;1.00;;;;;;6335969;22;20373;-42
2023/08/12 11:52:09;;;;;;;6.40;5.80;;;31.10;1.00;;;;;;6336107;22;20546;-40
2023/08/12 11:54:35;;;;;;;6.30;5.70;;;31.10;1.00;;;;;;6309098;22;20127;-42
2023/08/12 11:57:01;;;;;;;5.80;5.23;;;30.50;1.00;;;;;;6308818;22;20339;-42
2023/08/12 11:59:26;;;;;;;6.00;5.50;;;30.30;1.00;;;;;;6336956;22;20143;-41
2023/08/12 12:01:52;;;;;;;6.47;5.97;;;30.00;1.00;;;;;;6336049;22;20151;-40
2023/08/12 12:04:20;;;;;;;5.73;5.30;;;29.70;1.00;;;;;;6283527;22;20183;-40
2023/08/12 12:06:46;;;;;;;5.60;5.10;;;29.40;1.00;;;;;;6309030;22;20169;-40
2023/08/12 12:09:13;;;;;;;5.57;4.37;;;29.20;1.00;;;;;;6334582;22;20443;-43
2023/08/12 12:11:40;;;;;;;5.70;5.10;;;28.90;1.00;;;;;;6307514;22;20477;-38
2023/08/12 12:14:07;;;;;;;5.17;4.43;;;28.70;1.00;;;;;;6336145;22;20433;-40
2023/08/12 12:16:39;;;;;;;7.33;4.83;;;28.50;1.00;;;;;;6334593;22;20719;-40
2023/08/12 12:19:05;;;;;;;6.00;4.90;;;28.20;1.00;;;;;;6338832;22;20385;-39
2023/08/12 12:21:39;;;;;;;5.93;4.60;;;28.00;1.00;;;;;;6338898;22;20753;-40
2023/08/12 12:24:05;;;;;;;6.03;4.40;;;27.80;1.00;;;;;;6307546;22;20417;-41
2023/08/12 12:26:32;;;;;;;6.67;4.83;;;27.50;22.30;;;;;;6338437;22;20473;-38
2023/08/12 12:28:58;;;;;;;5.97;5.37;;;27.20;99.90;;;;;;6338607;22;20381;-42
2023/08/12 12:31:23;;;;;;;6.17;5.67;;;26.80;1.00;;;;;;6337359;22;20381;-39
2023/08/12 12:33:49;;;;;;;5.03;4.53;;;26.40;1.00;;;;;;6336157;22;20216;-37
2023/08/12 12:36:14;;;;;;;8.83;5.10;;;25.90;1.00;;;;;;6334094;22;20457;-39
2023/08/12 12:38:40;;;;;;;4.40;4.00;;;25.70;99.90;;;;;;6335060;22;20147;-38
2023/08/12 12:41:05;;;;;;;4.53;4.10;;;25.60;1.00;;;;;;6336138;22;20162;-40
2023/08/12 12:43:31;;;;;;;5.33;4.90;;;25.40;57.80;;;;;;6338911;22;20276;-39
2023/08/12 12:45:57;;;;;;;8.40;4.90;;;25.30;1.00;;;;;;6339180;22;20257;-40
2023/08/12 12:48:22;;;;;;;5.30;4.80;;;25.30;99.90;;;;;;6336941;22;20180;-38
2023/08/12 12:50:48;;;;;;;5.77;5.10;;;25.40;99.90;;;;;;6339104;22;20253;-39